Terminal Aerodrome Forecast
Issued by NWS Detroit/Pontiac, MI

Home | Current Version | Previous Version | Text Only | Print | Product List | Glossary On
Versions: 1 2 3 4 5 6 7 8 9 10 11 12 13 14 15 16 17 18 19 20 21 22 23 24 25 26 27
000
FTUS43 KDTX 250806 AAA
TAFDTW
TAF AMD
KDTW 250806Z 2508/2612 22015G23KT P6SM OVC012
      TEMPO 2509/2511 6SM -SHRASN BR OVC008
     FM251100 25013G21KT P6SM OVC015
     FM251500 23015G25KT P6SM BKN025
     FM252300 22010KT P6SM SCT025 BKN035
     FM260400 20006KT P6SM SCT035=

USA.gov is the U.S. government's official web portal to all federal, state and local government web resources and services.